createdAt,value
2023-12-11T00:01:11.302Z,12.20
2023-12-11T00:04:00.102Z,12.50
2023-12-11T00:06:48.702Z,13.20
2023-12-11T00:09:37.635Z,13.90
2023-12-11T00:12:26.399Z,11.80
2023-12-11T00:15:14.985Z,12.70
2023-12-11T00:18:03.757Z,13.80
2023-12-11T00:20:54.725Z,12.90
2023-12-11T00:23:43.518Z,12.30
2023-12-11T00:26:32.042Z,12.40
2023-12-11T00:29:20.612Z,14.00
2023-12-11T00:32:09.718Z,12.70
2023-12-11T00:34:58.459Z,14.60
2023-12-11T00:37:47.294Z,13.90
2023-12-11T00:40:35.777Z,12.70
2023-12-11T00:43:24.341Z,14.70
2023-12-11T00:46:15.922Z,15.40
2023-12-11T00:49:04.700Z,13.70
2023-12-11T00:51:56.158Z,14.60
2023-12-11T00:54:44.959Z,13.10
2023-12-11T00:57:33.809Z,14.10
2023-12-11T01:00:22.576Z,14.50
2023-12-11T01:03:11.327Z,14.70
2023-12-11T01:06:00.586Z,14.30
2023-12-11T01:08:49.242Z,13.50
2023-12-11T01:11:37.824Z,13.30
2023-12-11T01:14:26.384Z,14.10
2023-12-11T01:17:37.150Z,13.50
2023-12-11T01:20:23.513Z,13.30
2023-12-11T01:23:12.174Z,14.30
2023-12-11T01:26:03.404Z,12.90
2023-12-11T01:28:52.997Z,13.50
2023-12-11T01:31:41.516Z,13.60
2023-12-11T01:34:30.139Z,14.00
2023-12-11T01:37:19.690Z,12.70
2023-12-11T01:40:09.237Z,12.10
2023-12-11T01:43:18.235Z,14.00
2023-12-11T01:46:15.132Z,12.00
2023-12-11T01:49:04.303Z,11.90
2023-12-11T01:51:53.409Z,13.20
2023-12-11T01:54:42.516Z,12.20
2023-12-11T01:57:31.836Z,12.20
2023-12-11T02:05:26.144Z,11.20
2023-12-11T02:08:16.371Z,10.70
2023-12-11T02:11:04.906Z,11.30
2023-12-11T02:13:53.457Z,12.30
2023-12-11T02:16:44.504Z,11.40
2023-12-11T02:19:33.302Z,11.10
2023-12-11T02:22:22.529Z,11.10
2023-12-11T02:25:12.230Z,9.90
2023-12-11T02:28:00.880Z,10.00
2023-12-11T02:30:52.526Z,10.40
2023-12-11T02:33:42.507Z,10.00
2023-12-11T02:36:31.766Z,11.00
2023-12-11T02:39:20.427Z,9.80
2023-12-11T02:42:08.955Z,10.40
2023-12-11T02:44:57.514Z,10.10
2023-12-11T02:47:46.362Z,9.70
2023-12-11T02:50:35.647Z,9.20
2023-12-11T02:53:24.303Z,10.20
2023-12-11T02:56:13.809Z,9.40
2023-12-11T02:59:02.785Z,8.40
2023-12-11T03:01:51.479Z,8.90
2023-12-11T03:04:40.147Z,9.20
2023-12-11T03:07:29.128Z,9.00
2023-12-11T03:10:18.040Z,8.30
2023-12-11T03:13:06.630Z,8.40
2023-12-11T03:15:55.297Z,8.70
2023-12-11T03:18:44.016Z,9.80
2023-12-11T03:21:32.706Z,7.40
2023-12-11T03:24:21.351Z,7.70
2023-12-11T03:27:10.194Z,7.00
2023-12-11T03:29:58.670Z,6.20
2023-12-11T03:32:47.246Z,5.90
2023-12-11T03:35:36.110Z,5.90
2023-12-11T03:38:24.850Z,6.20
2023-12-11T03:41:13.450Z,5.50
2023-12-11T03:44:02.083Z,6.00
2023-12-11T03:46:50.822Z,6.40
2023-12-11T03:49:39.728Z,5.60
2023-12-11T03:52:28.359Z,4.80
2023-12-11T03:55:17.041Z,5.90
2023-12-11T03:58:05.709Z,4.80
2023-12-11T04:00:54.420Z,5.40
2023-12-11T04:03:43.086Z,4.90
2023-12-11T04:06:31.890Z,5.20
2023-12-11T04:09:20.779Z,5.00
2023-12-11T04:12:09.298Z,4.70
2023-12-11T04:14:58.113Z,4.20
2023-12-11T04:17:46.713Z,4.00
2023-12-11T04:20:35.503Z,4.90
2023-12-11T04:23:24.660Z,5.00
2023-12-11T04:26:14.454Z,4.70
2023-12-11T04:29:05.302Z,4.50
2023-12-11T04:31:54.109Z,4.90
2023-12-11T04:34:42.697Z,3.80
2023-12-11T04:37:31.576Z,4.50
2023-12-11T04:40:20.350Z,3.70
2023-12-11T04:43:09.213Z,4.60
2023-12-11T04:45:57.884Z,4.70
2023-12-11T04:48:46.747Z,4.40
2023-12-11T04:51:35.450Z,4.50
2023-12-11T04:54:24.048Z,5.40
2023-12-11T04:57:12.727Z,3.80
2023-12-11T05:00:01.510Z,4.20
2023-12-11T05:02:50.087Z,3.90
2023-12-11T05:05:38.712Z,4.50
2023-12-11T05:08:30.217Z,4.00
2023-12-11T05:11:19.306Z,4.20
2023-12-11T05:14:08.132Z,4.10
2023-12-11T05:16:56.726Z,3.40
2023-12-11T05:19:45.358Z,3.60
2023-12-11T05:22:34.009Z,3.80
2023-12-11T05:25:22.623Z,3.80
2023-12-11T05:28:14.700Z,3.50
2023-12-11T05:31:03.492Z,3.50
2023-12-11T05:33:52.263Z,3.90
2023-12-11T05:36:40.924Z,3.40
2023-12-11T05:39:29.578Z,4.20
2023-12-11T05:42:18.620Z,3.70
2023-12-11T05:45:07.927Z,4.40
2023-12-11T05:47:56.724Z,3.40
2023-12-11T05:50:45.776Z,4.10
2023-12-11T05:53:34.319Z,3.80
2023-12-11T05:56:23.099Z,4.40
2023-12-11T05:59:11.988Z,4.40
2023-12-11T06:02:00.570Z,3.90
2023-12-11T06:04:49.169Z,4.40
2023-12-11T06:07:37.798Z,5.10
2023-12-11T06:10:26.475Z,4.60
2023-12-11T06:13:15.143Z,5.00
2023-12-11T06:16:04.118Z,5.20
2023-12-11T06:18:53.022Z,5.90
2023-12-11T06:21:42.372Z,5.30
2023-12-11T06:24:31.055Z,6.50
2023-12-11T06:27:19.600Z,5.50
2023-12-11T06:30:08.775Z,6.50
2023-12-11T06:32:57.716Z,5.50
2023-12-11T06:35:46.280Z,5.20
2023-12-11T06:38:35.469Z,5.80
2023-12-11T06:41:24.200Z,4.80
2023-12-11T06:44:14.214Z,5.40
2023-12-11T06:47:02.786Z,4.40
2023-12-11T06:49:51.529Z,4.00
2023-12-11T06:52:40.208Z,4.70
2023-12-11T06:55:28.995Z,4.50
2023-12-11T06:58:17.602Z,4.60
2023-12-11T07:01:10.266Z,3.90
2023-12-11T07:04:00.932Z,3.80
2023-12-11T07:06:49.735Z,4.10
2023-12-11T07:09:38.416Z,4.00
2023-12-11T07:12:26.993Z,3.80
2023-12-11T07:15:15.643Z,4.00
2023-12-11T07:18:04.306Z,3.90
2023-12-11T07:20:53.146Z,5.10
2023-12-11T07:23:41.888Z,3.80
2023-12-11T07:26:30.535Z,3.80
2023-12-11T07:29:19.120Z,4.70
2023-12-11T07:32:08.149Z,3.90
2023-12-11T07:34:59.203Z,3.80
2023-12-11T07:37:47.899Z,4.00
2023-12-11T07:40:36.441Z,4.10
2023-12-11T07:43:25.498Z,4.10
2023-12-11T07:46:23.118Z,3.90
2023-12-11T07:49:15.257Z,4.40
2023-12-11T07:52:04.496Z,3.60
2023-12-11T07:54:53.114Z,3.90
2023-12-11T07:57:42.303Z,3.90
2023-12-11T08:00:31.409Z,4.10
2023-12-11T08:03:20.549Z,4.80
2023-12-11T08:06:12.526Z,3.80
2023-12-11T08:09:01.462Z,3.40
2023-12-11T08:11:51.024Z,3.80
2023-12-11T08:14:39.966Z,4.20
2023-12-11T08:17:28.920Z,3.90
2023-12-11T08:20:19.302Z,3.70
2023-12-11T08:23:08.392Z,3.50
2023-12-11T08:25:57.093Z,3.80
2023-12-11T08:28:46.796Z,4.10
2023-12-11T08:31:35.325Z,3.90
2023-12-11T08:34:23.973Z,3.90
2023-12-11T08:37:12.956Z,3.90
2023-12-11T08:40:02.086Z,4.10
2023-12-11T08:42:50.682Z,3.30
2023-12-11T08:45:39.863Z,3.20
2023-12-11T08:48:29.096Z,3.50
2023-12-11T08:51:19.566Z,3.50
2023-12-11T08:54:08.226Z,3.40
2023-12-11T08:56:56.761Z,3.40
2023-12-11T08:59:45.501Z,3.70
2023-12-11T09:02:34.123Z,3.20
2023-12-11T09:05:22.821Z,3.50
2023-12-11T09:08:11.429Z,3.20
2023-12-11T09:11:00.019Z,3.50
2023-12-11T09:13:48.694Z,3.70
2023-12-11T09:16:37.269Z,3.90
2023-12-11T09:19:35.838Z,3.70
2023-12-11T09:22:29.338Z,4.40
2023-12-11T09:25:18.120Z,3.70
2023-12-11T09:28:06.728Z,3.80
2023-12-11T09:30:55.760Z,4.70
2023-12-11T09:33:44.473Z,4.20
2023-12-11T09:36:33.215Z,3.70
2023-12-11T09:39:23.655Z,3.70
2023-12-11T09:42:14.398Z,4.10
2023-12-11T09:45:04.596Z,3.40
2023-12-11T09:48:04.804Z,3.70
2023-12-11T09:51:01.217Z,4.10
2023-12-11T09:53:53.115Z,3.80
2023-12-11T09:56:44.081Z,3.90
2023-12-11T09:59:32.732Z,2.60
2023-12-11T10:02:21.420Z,3.30
2023-12-11T10:05:11.713Z,3.20
2023-12-11T10:08:02.137Z,3.20
2023-12-11T10:10:50.767Z,3.10
2023-12-11T10:13:40.029Z,3.00
2023-12-11T10:16:33.637Z,3.20
2023-12-11T10:19:34.945Z,3.20
2023-12-11T10:25:28.062Z,3.10
2023-12-11T10:28:19.127Z,3.00
2023-12-11T10:31:07.887Z,3.00
2023-12-11T10:33:56.877Z,2.80
2023-12-11T10:36:52.777Z,2.90
2023-12-11T10:39:55.175Z,3.00
2023-12-11T10:42:44.092Z,3.30
2023-12-11T10:45:36.140Z,3.10
2023-12-11T10:48:24.822Z,3.40
2023-12-11T10:51:14.376Z,3.10
2023-12-11T10:54:02.956Z,2.70
2023-12-11T10:56:53.474Z,3.50
2023-12-11T10:59:42.778Z,3.30
2023-12-11T11:02:32.360Z,3.00
2023-12-11T11:05:22.450Z,3.10
2023-12-11T11:08:41.460Z,2.90
2023-12-11T11:11:38.544Z,3.50
2023-12-11T11:14:48.367Z,2.70
2023-12-11T11:17:59.704Z,3.30
2023-12-11T11:23:56.755Z,2.70
2023-12-11T11:26:45.353Z,3.00
2023-12-11T11:29:44.846Z,2.60
2023-12-11T11:32:56.857Z,3.00
2023-12-11T11:35:54.006Z,3.40
2023-12-11T11:38:54.504Z,3.20
2023-12-11T11:41:44.486Z,3.20
2023-12-11T11:44:33.082Z,3.10
2023-12-11T11:47:21.992Z,3.80
2023-12-11T11:50:15.179Z,3.30
2023-12-11T11:53:12.485Z,3.20
2023-12-11T11:56:02.767Z,3.50
2023-12-11T11:58:51.433Z,3.20
2023-12-11T12:01:57.104Z,2.90
2023-12-11T12:04:45.807Z,2.70
2023-12-11T12:07:34.640Z,2.90
2023-12-11T12:10:23.372Z,2.60
2023-12-11T12:13:12.156Z,2.80
2023-12-11T12:16:01.069Z,2.50
2023-12-11T12:18:51.229Z,2.60
2023-12-11T12:21:55.506Z,3.00
2023-12-11T12:24:49.742Z,3.00
2023-12-11T12:27:38.829Z,3.10
2023-12-11T12:30:28.827Z,2.60
2023-12-11T12:33:19.760Z,2.60
2023-12-11T12:36:08.673Z,3.00
2023-12-11T12:38:57.561Z,2.40
2023-12-11T12:41:50.931Z,2.80
2023-12-11T12:44:41.134Z,2.60
2023-12-11T12:47:30.419Z,2.80
2023-12-11T12:50:21.376Z,2.60
2023-12-11T12:53:15.203Z,2.80
2023-12-11T12:56:16.603Z,2.80
2023-12-11T12:59:06.819Z,3.30
2023-12-11T13:01:55.539Z,2.90
2023-12-11T13:04:55.447Z,2.80
2023-12-11T13:07:58.037Z,2.60
2023-12-11T13:10:57.818Z,2.60
2023-12-11T13:13:54.766Z,3.20
2023-12-11T13:16:48.036Z,2.40
2023-12-11T13:19:37.799Z,2.80
2023-12-11T13:22:26.991Z,2.40
2023-12-11T13:25:16.794Z,3.00
2023-12-11T13:28:05.757Z,3.00
2023-12-11T13:30:54.396Z,3.20
2023-12-11T13:33:43.229Z,3.20
2023-12-11T13:36:32.372Z,3.20
2023-12-11T13:39:21.239Z,3.20
2023-12-11T13:42:09.798Z,3.90
2023-12-11T13:44:59.885Z,3.10
2023-12-11T13:47:48.814Z,3.40
2023-12-11T13:50:37.453Z,3.40
2023-12-11T13:53:26.847Z,3.20
2023-12-11T13:56:15.524Z,3.80
2023-12-11T13:59:04.910Z,3.90
2023-12-11T14:01:53.587Z,4.30
2023-12-11T14:04:42.820Z,4.40
2023-12-11T14:07:32.196Z,4.10
2023-12-11T14:10:21.246Z,4.30
2023-12-11T14:13:14.608Z,4.20
2023-12-11T14:16:03.530Z,3.70
2023-12-11T14:18:52.825Z,3.90
2023-12-11T14:21:42.481Z,4.00
2023-12-11T14:24:31.205Z,3.70
2023-12-11T14:27:20.039Z,4.10
2023-12-11T14:30:09.185Z,3.60
2023-12-11T14:32:57.802Z,3.30
2023-12-11T14:35:47.836Z,3.70
2023-12-11T14:38:36.484Z,3.60
2023-12-11T14:41:25.036Z,3.80
2023-12-11T14:44:14.331Z,3.60
2023-12-11T14:47:03.048Z,4.40
2023-12-11T14:49:52.725Z,3.90
2023-12-11T14:52:41.592Z,4.10
2023-12-11T14:55:30.285Z,4.30
2023-12-11T14:58:19.373Z,4.10
2023-12-11T15:01:08.086Z,3.60
2023-12-11T15:03:57.028Z,3.60
2023-12-11T15:06:45.757Z,3.70
2023-12-11T15:09:35.909Z,3.90
2023-12-11T15:12:24.749Z,4.00
2023-12-11T15:15:13.614Z,3.70
2023-12-11T15:18:02.395Z,4.10
2023-12-11T15:20:50.968Z,3.70
2023-12-11T15:23:39.522Z,4.10
2023-12-11T15:26:28.515Z,4.20
2023-12-11T15:29:17.062Z,4.30
2023-12-11T15:32:06.270Z,4.20
2023-12-11T15:34:55.005Z,4.30
2023-12-11T15:37:43.867Z,4.90
2023-12-11T15:40:32.745Z,4.30
2023-12-11T15:43:21.394Z,4.20
2023-12-11T15:46:11.327Z,4.40
2023-12-11T15:49:01.548Z,4.50
2023-12-11T15:51:52.883Z,4.70
2023-12-11T15:54:44.504Z,4.70
2023-12-11T16:00:22.367Z,4.50
2023-12-11T16:03:11.086Z,4.50
2023-12-11T16:06:00.071Z,4.40
2023-12-11T16:08:48.757Z,4.60
2023-12-11T16:11:37.445Z,4.50
2023-12-11T16:14:25.962Z,4.50
2023-12-11T16:17:14.817Z,4.70
2023-12-11T16:20:05.455Z,5.30
2023-12-11T16:22:54.518Z,4.90
2023-12-11T16:25:51.060Z,4.60
2023-12-11T16:28:47.952Z,4.80
2023-12-11T16:31:36.563Z,4.40
2023-12-11T16:34:25.653Z,5.30
2023-12-11T16:37:14.528Z,5.60
2023-12-11T16:40:07.584Z,5.20
2023-12-11T16:42:56.604Z,5.50
2023-12-11T16:45:45.922Z,5.90
2023-12-11T16:48:36.854Z,5.20
2023-12-11T16:51:25.470Z,5.30
2023-12-11T16:54:14.072Z,5.40
2023-12-11T16:57:02.775Z,5.50
2023-12-11T16:59:51.305Z,5.70
2023-12-11T17:02:39.926Z,5.80
2023-12-11T17:05:28.887Z,6.00
2023-12-11T17:08:17.510Z,5.80
2023-12-11T17:11:06.102Z,6.80
2023-12-11T17:13:54.657Z,6.60
2023-12-11T17:16:43.388Z,6.50
2023-12-11T17:19:32.114Z,6.60
2023-12-11T17:22:21.878Z,6.50
2023-12-11T17:25:10.633Z,7.10
2023-12-11T17:27:59.299Z,6.20
2023-12-11T17:30:53.044Z,7.10
2023-12-11T17:33:42.120Z,6.60
2023-12-11T17:36:30.709Z,6.80
2023-12-11T17:39:19.310Z,6.40
2023-12-11T17:42:08.002Z,7.00
2023-12-11T17:44:56.787Z,6.80
2023-12-11T17:47:45.496Z,6.80
2023-12-11T17:50:34.090Z,7.00
2023-12-11T17:53:22.697Z,6.50
2023-12-11T17:56:12.562Z,6.90
2023-12-11T17:59:01.281Z,6.80
2023-12-11T18:01:49.917Z,6.40
2023-12-11T18:04:41.875Z,7.40
2023-12-11T18:07:30.585Z,6.60
2023-12-11T18:10:19.904Z,6.70
2023-12-11T18:13:08.582Z,6.90
2023-12-11T18:15:57.146Z,5.50
2023-12-11T18:18:45.868Z,6.60
2023-12-11T18:21:34.567Z,5.50
2023-12-11T18:24:23.159Z,6.00
2023-12-11T18:27:11.685Z,5.90
2023-12-11T18:30:00.593Z,6.40
2023-12-11T18:32:49.278Z,5.70
2023-12-11T18:35:38.202Z,5.60
2023-12-11T18:38:26.913Z,6.80
2023-12-11T18:41:27.363Z,6.50
2023-12-11T18:44:16.044Z,6.80
2023-12-11T18:47:04.862Z,6.10
2023-12-11T18:49:53.931Z,6.50
2023-12-11T18:52:49.468Z,6.10
2023-12-11T18:55:38.041Z,6.60
2023-12-11T18:58:29.487Z,6.70
2023-12-11T19:01:21.820Z,6.10
2023-12-11T19:04:10.945Z,6.70
2023-12-11T19:06:59.656Z,6.70
2023-12-11T19:09:48.587Z,7.10
2023-12-11T19:12:37.148Z,7.50
2023-12-11T19:15:26.148Z,7.60
2023-12-11T19:18:14.926Z,6.90
2023-12-11T19:21:03.632Z,7.40
2023-12-11T19:23:52.755Z,6.90
2023-12-11T19:26:41.806Z,7.00
2023-12-11T19:29:30.490Z,7.30
2023-12-11T19:32:20.793Z,6.50
2023-12-11T19:35:09.476Z,7.40
2023-12-11T19:37:58.054Z,7.10
2023-12-11T19:40:46.745Z,7.30
2023-12-11T19:43:35.565Z,7.40
2023-12-11T19:46:24.293Z,6.60
2023-12-11T19:49:13.112Z,6.10
2023-12-11T19:52:01.794Z,6.80
2023-12-11T19:54:50.578Z,6.90
2023-12-11T19:57:39.896Z,7.60
2023-12-11T20:00:28.665Z,7.40
2023-12-11T20:03:17.309Z,7.50
2023-12-11T20:06:06.383Z,7.20
2023-12-11T20:08:55.304Z,6.70
2023-12-11T20:11:44.927Z,7.20
2023-12-11T20:14:34.428Z,6.40
2023-12-11T20:17:23.183Z,7.80
2023-12-11T20:20:12.232Z,7.50
2023-12-11T20:23:00.779Z,8.60
2023-12-11T20:25:49.288Z,7.30
2023-12-11T20:28:37.880Z,7.50
2023-12-11T20:31:27.371Z,8.00
2023-12-11T20:34:16.466Z,6.60
2023-12-11T20:37:05.485Z,7.90
2023-12-11T20:39:54.898Z,7.30
2023-12-11T20:42:43.774Z,6.50
2023-12-11T20:45:32.382Z,8.00
2023-12-11T20:48:21.139Z,7.70
2023-12-11T20:51:09.835Z,7.60
2023-12-11T20:53:58.365Z,7.40
2023-12-11T20:56:46.988Z,7.30
2023-12-11T20:59:35.554Z,7.00
2023-12-11T21:02:24.159Z,7.10
2023-12-11T21:05:12.854Z,6.70
2023-12-11T21:08:01.883Z,6.60
2023-12-11T21:10:50.477Z,6.20
2023-12-11T21:13:39.217Z,6.20
2023-12-11T21:16:28.194Z,6.20
2023-12-11T21:19:16.933Z,5.30
2023-12-11T21:22:05.562Z,5.30
2023-12-11T21:24:54.386Z,5.90
2023-12-11T21:27:42.996Z,6.40
2023-12-11T21:30:31.553Z,4.60
2023-12-11T21:33:20.871Z,6.40
2023-12-11T21:36:09.522Z,6.20
2023-12-11T21:38:59.152Z,6.20
2023-12-11T21:41:47.714Z,6.00
2023-12-11T21:44:36.337Z,6.80
2023-12-11T21:47:25.348Z,6.90
2023-12-11T21:50:14.606Z,6.90
2023-12-11T21:53:03.408Z,8.00
2023-12-11T21:55:51.958Z,7.50
2023-12-11T21:58:44.091Z,7.10
2023-12-11T22:01:35.118Z,7.20
2023-12-11T22:04:23.813Z,7.80
2023-12-11T22:07:14.851Z,8.50
2023-12-11T22:10:07.128Z,8.00
2023-12-11T22:15:44.315Z,7.00
2023-12-11T22:18:32.937Z,6.60
2023-12-11T22:21:25.749Z,7.60
2023-12-11T22:24:15.623Z,7.40
2023-12-11T22:27:04.703Z,8.80
2023-12-11T22:29:53.255Z,7.70
2023-12-11T22:32:42.015Z,7.80
2023-12-11T22:35:30.606Z,9.00
2023-12-11T22:38:19.351Z,9.40
2023-12-11T22:41:08.002Z,8.60
2023-12-11T22:43:57.393Z,8.70
2023-12-11T22:46:46.514Z,8.70
2023-12-11T22:49:35.196Z,9.60
2023-12-11T22:52:23.855Z,8.60
2023-12-11T22:55:12.878Z,9.60
2023-12-11T22:58:13.457Z,9.20
2023-12-11T23:01:05.217Z,8.40
2023-12-11T23:03:54.666Z,8.20
2023-12-11T23:06:43.271Z,8.20
2023-12-11T23:09:31.892Z,8.90
2023-12-11T23:12:20.609Z,8.70
2023-12-11T23:15:09.786Z,9.00
2023-12-11T23:17:58.371Z,8.70
2023-12-11T23:20:47.019Z,8.10
2023-12-11T23:23:35.590Z,6.70
2023-12-11T23:26:25.323Z,6.70
2023-12-11T23:29:14.023Z,6.40
2023-12-11T23:32:02.641Z,7.50
2023-12-11T23:34:51.346Z,6.60
2023-12-11T23:37:40.161Z,6.00
2023-12-11T23:40:29.052Z,6.30
2023-12-11T23:43:17.978Z,5.90
2023-12-11T23:46:06.737Z,4.90
2023-12-11T23:48:55.521Z,4.90
2023-12-11T23:51:44.564Z,4.70
2023-12-11T23:54:33.165Z,4.90
2023-12-11T23:57:21.754Z,4.50
